sensor_id;sensor_type;location;lat;lon;timestamp;P1;durP1;ratioP1;P2;durP2;ratioP2
13816;SDS011;6979;52.116;5.286;2023-03-26T00:01:24;7.73;;;3.70;;
13816;SDS011;6979;52.116;5.286;2023-03-26T00:03:52;7.63;;;3.53;;
13816;SDS011;6979;52.116;5.286;2023-03-26T00:06:22;9.03;;;4.23;;
13816;SDS011;6979;52.116;5.286;2023-03-26T00:08:52;10.20;;;4.33;;
13816;SDS011;6979;52.116;5.286;2023-03-26T00:11:20;6.97;;;4.27;;
13816;SDS011;6979;52.116;5.286;2023-03-26T00:13:48;8.07;;;3.63;;
13816;SDS011;6979;52.116;5.286;2023-03-26T00:16:18;6.53;;;3.60;;
13816;SDS011;6979;52.116;5.286;2023-03-26T00:18:46;5.23;;;3.40;;
13816;SDS011;6979;52.116;5.286;2023-03-26T00:21:14;5.27;;;2.73;;
13816;SDS011;6979;52.116;5.286;2023-03-26T00:23:42;7.27;;;3.97;;
13816;SDS011;6979;52.116;5.286;2023-03-26T00:26:10;8.30;;;4.07;;
13816;SDS011;6979;52.116;5.286;2023-03-26T00:28:37;9.10;;;3.43;;
13816;SDS011;6979;52.116;5.286;2023-03-26T00:31:06;10.10;;;4.40;;
13816;SDS011;6979;52.116;5.286;2023-03-26T00:33:34;8.30;;;4.37;;
13816;SDS011;6979;52.116;5.286;2023-03-26T00:36:03;9.27;;;4.53;;
13816;SDS011;6979;52.116;5.286;2023-03-26T00:38:33;7.63;;;5.13;;
13816;SDS011;6979;52.116;5.286;2023-03-26T00:41:03;7.50;;;4.10;;
13816;SDS011;6979;52.116;5.286;2023-03-26T00:43:33;8.30;;;3.93;;
13816;SDS011;6979;52.116;5.286;2023-03-26T00:46:01;8.87;;;3.47;;
13816;SDS011;6979;52.116;5.286;2023-03-26T00:48:28;8.67;;;3.60;;
13816;SDS011;6979;52.116;5.286;2023-03-26T00:50:55;9.50;;;3.33;;
13816;SDS011;6979;52.116;5.286;2023-03-26T00:53:23;6.40;;;3.20;;
13816;SDS011;6979;52.116;5.286;2023-03-26T00:55:50;7.77;;;2.80;;
13816;SDS011;6979;52.116;5.286;2023-03-26T00:58:17;10.50;;;3.83;;
13816;SDS011;6979;52.116;5.286;2023-03-26T01:00:51;7.97;;;3.73;;
13816;SDS011;6979;52.116;5.286;2023-03-26T01:03:21;8.83;;;3.10;;
13816;SDS011;6979;52.116;5.286;2023-03-26T01:05:50;7.27;;;4.03;;
13816;SDS011;6979;52.116;5.286;2023-03-26T01:08:22;8.27;;;3.17;;
13816;SDS011;6979;52.116;5.286;2023-03-26T01:10:53;8.20;;;3.97;;
13816;SDS011;6979;52.116;5.286;2023-03-26T01:13:27;12.50;;;4.80;;
13816;SDS011;6979;52.116;5.286;2023-03-26T01:15:58;10.13;;;4.77;;
13816;SDS011;6979;52.116;5.286;2023-03-26T01:18:27;8.17;;;2.73;;
13816;SDS011;6979;52.116;5.286;2023-03-26T01:21:05;9.57;;;3.23;;
13816;SDS011;6979;52.116;5.286;2023-03-26T01:23:36;14.73;;;4.63;;
13816;SDS011;6979;52.116;5.286;2023-03-26T01:26:11;10.97;;;3.97;;
13816;SDS011;6979;52.116;5.286;2023-03-26T01:28:48;6.13;;;3.30;;
13816;SDS011;6979;52.116;5.286;2023-03-26T01:31:20;14.70;;;3.87;;
13816;SDS011;6979;52.116;5.286;2023-03-26T01:33:55;9.97;;;4.07;;
13816;SDS011;6979;52.116;5.286;2023-03-26T01:36:28;13.00;;;4.90;;
13816;SDS011;6979;52.116;5.286;2023-03-26T01:39:03;10.83;;;4.23;;
13816;SDS011;6979;52.116;5.286;2023-03-26T01:41:37;14.37;;;4.23;;
13816;SDS011;6979;52.116;5.286;2023-03-26T01:44:10;8.67;;;3.93;;
13816;SDS011;6979;52.116;5.286;2023-03-26T01:46:45;13.97;;;5.53;;
13816;SDS011;6979;52.116;5.286;2023-03-26T01:49:13;11.40;;;4.03;;
13816;SDS011;6979;52.116;5.286;2023-03-26T01:51:40;13.40;;;4.47;;
13816;SDS011;6979;52.116;5.286;2023-03-26T01:54:08;14.33;;;4.40;;
13816;SDS011;6979;52.116;5.286;2023-03-26T01:56:42;15.57;;;4.93;;
13816;SDS011;6979;52.116;5.286;2023-03-26T01:59:34;14.53;;;4.67;;
13816;SDS011;6979;52.116;5.286;2023-03-26T02:02:12;15.40;;;5.60;;
13816;SDS011;6979;52.116;5.286;2023-03-26T02:04:50;13.50;;;5.50;;
13816;SDS011;6979;52.116;5.286;2023-03-26T02:07:22;18.60;;;5.00;;
13816;SDS011;6979;52.116;5.286;2023-03-26T02:09:53;13.70;;;5.47;;
13816;SDS011;6979;52.116;5.286;2023-03-26T02:12:25;15.70;;;5.20;;
13816;SDS011;6979;52.116;5.286;2023-03-26T02:14:54;11.03;;;4.30;;
13816;SDS011;6979;52.116;5.286;2023-03-26T02:17:21;12.10;;;5.10;;
13816;SDS011;6979;52.116;5.286;2023-03-26T02:19:48;12.63;;;4.20;;
13816;SDS011;6979;52.116;5.286;2023-03-26T02:22:16;17.80;;;5.10;;
13816;SDS011;6979;52.116;5.286;2023-03-26T02:24:46;14.87;;;5.57;;
13816;SDS011;6979;52.116;5.286;2023-03-26T02:27:13;16.77;;;4.63;;
13816;SDS011;6979;52.116;5.286;2023-03-26T02:29:44;17.37;;;5.30;;
13816;SDS011;6979;52.116;5.286;2023-03-26T02:32:12;13.30;;;5.40;;
13816;SDS011;6979;52.116;5.286;2023-03-26T02:34:39;14.77;;;5.37;;
13816;SDS011;6979;52.116;5.286;2023-03-26T02:37:09;15.93;;;5.30;;
13816;SDS011;6979;52.116;5.286;2023-03-26T02:39:38;19.27;;;6.27;;
13816;SDS011;6979;52.116;5.286;2023-03-26T02:42:13;17.13;;;6.17;;
13816;SDS011;6979;52.116;5.286;2023-03-26T02:44:47;16.73;;;5.47;;
13816;SDS011;6979;52.116;5.286;2023-03-26T02:47:17;18.13;;;6.10;;
13816;SDS011;6979;52.116;5.286;2023-03-26T02:50:02;17.67;;;4.97;;
13816;SDS011;6979;52.116;5.286;2023-03-26T02:52:53;17.77;;;5.20;;
13816;SDS011;6979;52.116;5.286;2023-03-26T02:55:20;14.03;;;4.70;;
13816;SDS011;6979;52.116;5.286;2023-03-26T02:57:49;18.43;;;5.70;;
13816;SDS011;6979;52.116;5.286;2023-03-26T03:00:23;15.77;;;5.97;;
13816;SDS011;6979;52.116;5.286;2023-03-26T03:03:10;19.63;;;6.67;;
13816;SDS011;6979;52.116;5.286;2023-03-26T03:05:56;22.83;;;7.30;;
13816;SDS011;6979;52.116;5.286;2023-03-26T03:08:34;21.00;;;6.77;;
13816;SDS011;6979;52.116;5.286;2023-03-26T03:11:36;17.93;;;8.47;;
13816;SDS011;6979;52.116;5.286;2023-03-26T03:14:03;18.23;;;7.10;;
13816;SDS011;6979;52.116;5.286;2023-03-26T03:16:32;23.60;;;7.43;;
13816;SDS011;6979;52.116;5.286;2023-03-26T03:19:06;17.80;;;7.43;;
13816;SDS011;6979;52.116;5.286;2023-03-26T03:21:37;21.10;;;7.37;;
13816;SDS011;6979;52.116;5.286;2023-03-26T03:24:06;18.07;;;7.80;;
13816;SDS011;6979;52.116;5.286;2023-03-26T03:26:38;24.40;;;7.23;;
13816;SDS011;6979;52.116;5.286;2023-03-26T03:29:35;18.13;;;7.97;;
13816;SDS011;6979;52.116;5.286;2023-03-26T03:32:22;20.23;;;8.20;;
13816;SDS011;6979;52.116;5.286;2023-03-26T03:34:53;20.03;;;8.13;;
13816;SDS011;6979;52.116;5.286;2023-03-26T03:37:20;16.97;;;8.47;;
13816;SDS011;6979;52.116;5.286;2023-03-26T03:39:53;16.00;;;7.47;;
13816;SDS011;6979;52.116;5.286;2023-03-26T03:42:22;17.93;;;7.63;;
13816;SDS011;6979;52.116;5.286;2023-03-26T03:44:52;16.13;;;7.57;;
13816;SDS011;6979;52.116;5.286;2023-03-26T03:47:43;22.73;;;7.77;;
13816;SDS011;6979;52.116;5.286;2023-03-26T03:50:11;19.90;;;8.70;;
13816;SDS011;6979;52.116;5.286;2023-03-26T03:52:48;22.27;;;8.60;;
13816;SDS011;6979;52.116;5.286;2023-03-26T03:55:15;20.00;;;8.37;;
13816;SDS011;6979;52.116;5.286;2023-03-26T03:57:51;20.67;;;9.27;;
13816;SDS011;6979;52.116;5.286;2023-03-26T04:00:21;22.90;;;8.73;;
13816;SDS011;6979;52.116;5.286;2023-03-26T04:03:04;17.70;;;9.03;;
13816;SDS011;6979;52.116;5.286;2023-03-26T04:05:31;13.13;;;6.97;;
13816;SDS011;6979;52.116;5.286;2023-03-26T04:07:58;19.90;;;7.77;;
13816;SDS011;6979;52.116;5.286;2023-03-26T04:10:25;19.43;;;7.40;;
13816;SDS011;6979;52.116;5.286;2023-03-26T04:13:01;17.93;;;7.17;;
13816;SDS011;6979;52.116;5.286;2023-03-26T04:15:57;18.10;;;7.30;;
13816;SDS011;6979;52.116;5.286;2023-03-26T04:18:26;16.63;;;7.30;;
13816;SDS011;6979;52.116;5.286;2023-03-26T04:20:56;21.67;;;8.63;;
13816;SDS011;6979;52.116;5.286;2023-03-26T04:23:28;17.90;;;7.77;;
13816;SDS011;6979;52.116;5.286;2023-03-26T04:26:00;22.00;;;9.03;;
13816;SDS011;6979;52.116;5.286;2023-03-26T04:28:56;21.97;;;8.33;;
13816;SDS011;6979;52.116;5.286;2023-03-26T04:31:27;18.03;;;7.70;;
13816;SDS011;6979;52.116;5.286;2023-03-26T04:33:58;13.50;;;7.40;;
13816;SDS011;6979;52.116;5.286;2023-03-26T04:36:33;28.00;;;8.60;;
13816;SDS011;6979;52.116;5.286;2023-03-26T04:39:01;17.57;;;8.43;;
13816;SDS011;6979;52.116;5.286;2023-03-26T04:41:48;15.43;;;7.97;;
13816;SDS011;6979;52.116;5.286;2023-03-26T04:44:17;15.30;;;7.87;;
13816;SDS011;6979;52.116;5.286;2023-03-26T04:46:54;13.77;;;7.60;;
13816;SDS011;6979;52.116;5.286;2023-03-26T04:49:30;15.37;;;8.03;;
13816;SDS011;6979;52.116;5.286;2023-03-26T04:51:57;17.57;;;8.63;;
13816;SDS011;6979;52.116;5.286;2023-03-26T04:54:53;21.10;;;8.83;;
13816;SDS011;6979;52.116;5.286;2023-03-26T04:57:22;16.60;;;7.80;;
13816;SDS011;6979;52.116;5.286;2023-03-26T04:59:59;14.80;;;7.57;;
13816;SDS011;6979;52.116;5.286;2023-03-26T05:02:30;14.30;;;8.30;;
13816;SDS011;6979;52.116;5.286;2023-03-26T05:04:58;17.13;;;7.83;;
13816;SDS011;6979;52.116;5.286;2023-03-26T05:07:28;13.07;;;7.60;;
13816;SDS011;6979;52.116;5.286;2023-03-26T05:09:58;16.30;;;8.20;;
13816;SDS011;6979;52.116;5.286;2023-03-26T05:12:42;16.83;;;8.07;;
13816;SDS011;6979;52.116;5.286;2023-03-26T05:15:14;12.90;;;8.50;;
13816;SDS011;6979;52.116;5.286;2023-03-26T05:17:56;13.97;;;8.37;;
13816;SDS011;6979;52.116;5.286;2023-03-26T05:20:31;14.57;;;7.23;;
13816;SDS011;6979;52.116;5.286;2023-03-26T05:22:59;15.13;;;7.90;;
13816;SDS011;6979;52.116;5.286;2023-03-26T05:25:32;20.83;;;9.50;;
13816;SDS011;6979;52.116;5.286;2023-03-26T05:28:00;13.07;;;8.37;;
13816;SDS011;6979;52.116;5.286;2023-03-26T05:30:35;16.50;;;7.53;;
13816;SDS011;6979;52.116;5.286;2023-03-26T05:33:02;17.03;;;9.37;;
13816;SDS011;6979;52.116;5.286;2023-03-26T05:35:40;18.70;;;8.03;;
13816;SDS011;6979;52.116;5.286;2023-03-26T05:38:08;18.20;;;9.67;;
13816;SDS011;6979;52.116;5.286;2023-03-26T05:40:35;15.27;;;8.57;;
13816;SDS011;6979;52.116;5.286;2023-03-26T05:43:05;20.17;;;9.37;;
13816;SDS011;6979;52.116;5.286;2023-03-26T05:45:38;16.70;;;8.73;;
13816;SDS011;6979;52.116;5.286;2023-03-26T05:48:14;15.70;;;8.20;;
13816;SDS011;6979;52.116;5.286;2023-03-26T05:50:43;17.90;;;8.20;;
13816;SDS011;6979;52.116;5.286;2023-03-26T05:53:10;15.60;;;9.27;;
13816;SDS011;6979;52.116;5.286;2023-03-26T05:55:46;17.23;;;8.93;;
13816;SDS011;6979;52.116;5.286;2023-03-26T05:58:35;16.10;;;8.83;;
13816;SDS011;6979;52.116;5.286;2023-03-26T06:01:20;17.10;;;8.40;;
13816;SDS011;6979;52.116;5.286;2023-03-26T06:04:10;14.40;;;8.73;;
13816;SDS011;6979;52.116;5.286;2023-03-26T06:06:47;17.87;;;8.93;;
13816;SDS011;6979;52.116;5.286;2023-03-26T06:09:14;18.63;;;8.13;;
13816;SDS011;6979;52.116;5.286;2023-03-26T06:11:42;16.80;;;9.23;;
13816;SDS011;6979;52.116;5.286;2023-03-26T06:14:09;13.43;;;8.30;;
13816;SDS011;6979;52.116;5.286;2023-03-26T06:16:42;18.37;;;8.47;;
13816;SDS011;6979;52.116;5.286;2023-03-26T06:19:19;18.37;;;9.20;;
13816;SDS011;6979;52.116;5.286;2023-03-26T06:21:56;18.30;;;8.37;;
13816;SDS011;6979;52.116;5.286;2023-03-26T06:24:29;15.67;;;8.80;;
13816;SDS011;6979;52.116;5.286;2023-03-26T06:27:28;17.77;;;9.37;;
13816;SDS011;6979;52.116;5.286;2023-03-26T06:30:14;17.93;;;9.50;;
13816;SDS011;6979;52.116;5.286;2023-03-26T06:33:02;21.70;;;8.60;;
13816;SDS011;6979;52.116;5.286;2023-03-26T06:35:36;18.53;;;8.87;;
13816;SDS011;6979;52.116;5.286;2023-03-26T06:38:05;16.73;;;8.63;;
13816;SDS011;6979;52.116;5.286;2023-03-26T06:40:34;15.23;;;8.70;;
13816;SDS011;6979;52.116;5.286;2023-03-26T06:43:27;15.90;;;8.67;;
13816;SDS011;6979;52.116;5.286;2023-03-26T06:46:09;16.50;;;8.50;;
13816;SDS011;6979;52.116;5.286;2023-03-26T06:48:36;18.03;;;9.57;;
13816;SDS011;6979;52.116;5.286;2023-03-26T06:51:29;18.10;;;8.87;;
13816;SDS011;6979;52.116;5.286;2023-03-26T06:54:25;16.93;;;9.77;;
13816;SDS011;6979;52.116;5.286;2023-03-26T06:56:55;20.90;;;10.07;;
13816;SDS011;6979;52.116;5.286;2023-03-26T06:59:41;20.93;;;9.00;;
13816;SDS011;6979;52.116;5.286;2023-03-26T07:02:27;17.43;;;10.13;;
13816;SDS011;6979;52.116;5.286;2023-03-26T07:05:12;17.10;;;10.00;;
13816;SDS011;6979;52.116;5.286;2023-03-26T07:08:18;16.20;;;9.23;;
13816;SDS011;6979;52.116;5.286;2023-03-26T07:11:05;19.73;;;10.23;;
13816;SDS011;6979;52.116;5.286;2023-03-26T07:13:50;20.70;;;9.60;;
13816;SDS011;6979;52.116;5.286;2023-03-26T07:16:49;23.23;;;9.40;;
13816;SDS011;6979;52.116;5.286;2023-03-26T07:19:30;18.87;;;9.43;;
13816;SDS011;6979;52.116;5.286;2023-03-26T07:21:57;22.03;;;11.43;;
13816;SDS011;6979;52.116;5.286;2023-03-26T07:24:45;16.23;;;10.03;;
13816;SDS011;6979;52.116;5.286;2023-03-26T07:27:54;19.27;;;10.30;;
13816;SDS011;6979;52.116;5.286;2023-03-26T07:30:58;17.27;;;9.23;;
13816;SDS011;6979;52.116;5.286;2023-03-26T07:33:51;15.90;;;9.00;;
13816;SDS011;6979;52.116;5.286;2023-03-26T07:36:56;19.90;;;10.43;;
13816;SDS011;6979;52.116;5.286;2023-03-26T07:39:51;13.30;;;8.93;;
13816;SDS011;6979;52.116;5.286;2023-03-26T07:42:46;16.00;;;9.67;;
13816;SDS011;6979;52.116;5.286;2023-03-26T07:46:02;16.80;;;10.03;;
13816;SDS011;6979;52.116;5.286;2023-03-26T07:48:43;23.63;;;11.40;;
13816;SDS011;6979;52.116;5.286;2023-03-26T07:51:30;19.20;;;10.37;;
13816;SDS011;6979;52.116;5.286;2023-03-26T07:54:27;19.17;;;10.17;;
13816;SDS011;6979;52.116;5.286;2023-03-26T07:57:35;20.87;;;11.60;;
13816;SDS011;6979;52.116;5.286;2023-03-26T08:00:35;23.50;;;11.07;;
13816;SDS011;6979;52.116;5.286;2023-03-26T08:06:27;21.67;;;12.07;;
13816;SDS011;6979;52.116;5.286;2023-03-26T08:09:15;21.27;;;12.17;;
13816;SDS011;6979;52.116;5.286;2023-03-26T08:12:19;17.00;;;9.33;;
13816;SDS011;6979;52.116;5.286;2023-03-26T08:14:57;16.63;;;10.23;;
13816;SDS011;6979;52.116;5.286;2023-03-26T08:17:32;20.40;;;10.83;;
13816;SDS011;6979;52.116;5.286;2023-03-26T08:20:05;17.63;;;10.47;;
13816;SDS011;6979;52.116;5.286;2023-03-26T08:22:41;19.23;;;11.40;;
13816;SDS011;6979;52.116;5.286;2023-03-26T08:25:17;16.87;;;10.80;;
13816;SDS011;6979;52.116;5.286;2023-03-26T08:27:54;15.87;;;10.67;;
13816;SDS011;6979;52.116;5.286;2023-03-26T08:30:29;22.83;;;11.20;;
13816;SDS011;6979;52.116;5.286;2023-03-26T08:32:58;14.87;;;11.03;;
13816;SDS011;6979;52.116;5.286;2023-03-26T08:35:36;13.93;;;10.33;;
13816;SDS011;6979;52.116;5.286;2023-03-26T08:38:06;18.77;;;11.57;;
13816;SDS011;6979;52.116;5.286;2023-03-26T08:47:03;19.93;;;11.17;;
13816;SDS011;6979;52.116;5.286;2023-03-26T08:50:19;14.57;;;10.17;;
13816;SDS011;6979;52.116;5.286;2023-03-26T08:56:18;18.67;;;10.60;;
13816;SDS011;6979;52.116;5.286;2023-03-26T09:04:50;15.17;;;10.47;;
13816;SDS011;6979;52.116;5.286;2023-03-26T09:10:44;19.00;;;11.90;;
13816;SDS011;6979;52.116;5.286;2023-03-26T09:16:18;17.20;;;10.53;;
13816;SDS011;6979;52.116;5.286;2023-03-26T09:19:38;13.80;;;11.13;;
13816;SDS011;6979;52.116;5.286;2023-03-26T09:22:40;13.33;;;9.97;;
13816;SDS011;6979;52.116;5.286;2023-03-26T09:25:30;14.73;;;11.60;;
13816;SDS011;6979;52.116;5.286;2023-03-26T09:28:20;17.63;;;11.80;;
13816;SDS011;6979;52.116;5.286;2023-03-26T09:34:22;15.47;;;11.47;;
13816;SDS011;6979;52.116;5.286;2023-03-26T09:36:55;13.90;;;10.93;;
13816;SDS011;6979;52.116;5.286;2023-03-26T09:39:41;12.57;;;10.27;;
13816;SDS011;6979;52.116;5.286;2023-03-26T09:42:22;13.77;;;9.33;;
13816;SDS011;6979;52.116;5.286;2023-03-26T09:45:07;10.40;;;9.27;;
13816;SDS011;6979;52.116;5.286;2023-03-26T09:50:51;10.97;;;8.47;;
13816;SDS011;6979;52.116;5.286;2023-03-26T09:53:37;16.30;;;9.73;;
13816;SDS011;6979;52.116;5.286;2023-03-26T09:56:24;13.13;;;9.30;;
13816;SDS011;6979;52.116;5.286;2023-03-26T09:59:15;12.30;;;9.70;;
13816;SDS011;6979;52.116;5.286;2023-03-26T10:02:03;12.87;;;10.00;;
13816;SDS011;6979;52.116;5.286;2023-03-26T10:04:47;13.17;;;9.47;;
13816;SDS011;6979;52.116;5.286;2023-03-26T10:07:38;12.00;;;9.43;;
13816;SDS011;6979;52.116;5.286;2023-03-26T10:10:16;10.47;;;9.03;;
13816;SDS011;6979;52.116;5.286;2023-03-26T10:12:49;14.03;;;9.20;;
13816;SDS011;6979;52.116;5.286;2023-03-26T10:15:25;14.73;;;10.13;;
13816;SDS011;6979;52.116;5.286;2023-03-26T10:18:03;9.77;;;8.37;;
13816;SDS011;6979;52.116;5.286;2023-03-26T10:20:45;13.30;;;8.43;;
13816;SDS011;6979;52.116;5.286;2023-03-26T10:23:23;10.20;;;8.53;;
13816;SDS011;6979;52.116;5.286;2023-03-26T10:29:17;10.80;;;7.00;;
13816;SDS011;6979;52.116;5.286;2023-03-26T10:32:01;8.83;;;6.10;;
13816;SDS011;6979;52.116;5.286;2023-03-26T10:34:47;6.27;;;5.60;;
13816;SDS011;6979;52.116;5.286;2023-03-26T10:37:24;8.83;;;5.33;;
13816;SDS011;6979;52.116;5.286;2023-03-26T10:40:09;9.17;;;5.10;;
13816;SDS011;6979;52.116;5.286;2023-03-26T10:42:49;5.97;;;4.17;;
13816;SDS011;6979;52.116;5.286;2023-03-26T10:45:35;7.13;;;4.20;;
13816;SDS011;6979;52.116;5.286;2023-03-26T10:51:26;6.97;;;4.20;;
13816;SDS011;6979;52.116;5.286;2023-03-26T10:54:14;10.30;;;4.17;;
13816;SDS011;6979;52.116;5.286;2023-03-26T10:56:49;6.13;;;3.50;;
13816;SDS011;6979;52.116;5.286;2023-03-26T10:59:17;5.80;;;3.80;;
13816;SDS011;6979;52.116;5.286;2023-03-26T11:01:52;7.83;;;3.93;;
13816;SDS011;6979;52.116;5.286;2023-03-26T11:04:32;7.40;;;4.60;;
13816;SDS011;6979;52.116;5.286;2023-03-26T11:07:12;8.60;;;4.23;;
13816;SDS011;6979;52.116;5.286;2023-03-26T11:09:47;7.50;;;4.37;;
13816;SDS011;6979;52.116;5.286;2023-03-26T11:12:21;6.83;;;3.70;;
13816;SDS011;6979;52.116;5.286;2023-03-26T11:14:56;9.90;;;4.33;;
13816;SDS011;6979;52.116;5.286;2023-03-26T11:17:35;9.97;;;3.70;;
13816;SDS011;6979;52.116;5.286;2023-03-26T11:20:12;8.07;;;3.83;;
13816;SDS011;6979;52.116;5.286;2023-03-26T11:22:49;7.80;;;3.40;;
13816;SDS011;6979;52.116;5.286;2023-03-26T11:25:38;7.33;;;4.00;;
13816;SDS011;6979;52.116;5.286;2023-03-26T11:28:15;7.87;;;3.53;;
13816;SDS011;6979;52.116;5.286;2023-03-26T11:30:52;8.80;;;3.80;;
13816;SDS011;6979;52.116;5.286;2023-03-26T11:33:25;9.27;;;4.00;;
13816;SDS011;6979;52.116;5.286;2023-03-26T11:35:55;7.03;;;3.50;;
13816;SDS011;6979;52.116;5.286;2023-03-26T11:38:29;7.30;;;3.57;;
13816;SDS011;6979;52.116;5.286;2023-03-26T11:41:01;7.37;;;3.87;;
13816;SDS011;6979;52.116;5.286;2023-03-26T11:43:57;6.97;;;3.87;;
13816;SDS011;6979;52.116;5.286;2023-03-26T11:46:29;5.73;;;3.67;;
13816;SDS011;6979;52.116;5.286;2023-03-26T11:49:00;4.73;;;3.53;;
13816;SDS011;6979;52.116;5.286;2023-03-26T11:51:35;8.23;;;3.80;;
13816;SDS011;6979;52.116;5.286;2023-03-26T11:54:05;7.90;;;3.47;;
13816;SDS011;6979;52.116;5.286;2023-03-26T11:56:36;6.70;;;3.57;;
13816;SDS011;6979;52.116;5.286;2023-03-26T11:59:10;7.60;;;3.17;;
13816;SDS011;6979;52.116;5.286;2023-03-26T12:01:46;8.20;;;3.70;;
13816;SDS011;6979;52.116;5.286;2023-03-26T12:04:16;6.83;;;3.30;;
13816;SDS011;6979;52.116;5.286;2023-03-26T12:06:49;4.37;;;2.80;;
13816;SDS011;6979;52.116;5.286;2023-03-26T12:09:24;3.83;;;2.83;;
13816;SDS011;6979;52.116;5.286;2023-03-26T12:11:53;7.17;;;3.47;;
13816;SDS011;6979;52.116;5.286;2023-03-26T12:14:32;12.20;;;3.63;;
13816;SDS011;6979;52.116;5.286;2023-03-26T12:17:10;7.77;;;3.73;;
13816;SDS011;6979;52.116;5.286;2023-03-26T12:19:44;8.70;;;3.30;;
13816;SDS011;6979;52.116;5.286;2023-03-26T12:25:07;7.00;;;3.70;;
13816;SDS011;6979;52.116;5.286;2023-03-26T12:27:41;5.90;;;3.00;;
13816;SDS011;6979;52.116;5.286;2023-03-26T12:30:10;6.30;;;3.07;;
13816;SDS011;6979;52.116;5.286;2023-03-26T12:32:46;5.73;;;2.77;;
13816;SDS011;6979;52.116;5.286;2023-03-26T12:35:16;5.80;;;2.73;;
13816;SDS011;6979;52.116;5.286;2023-03-26T12:37:44;6.93;;;3.37;;
13816;SDS011;6979;52.116;5.286;2023-03-26T12:40:31;7.10;;;2.67;;
13816;SDS011;6979;52.116;5.286;2023-03-26T12:43:04;6.70;;;2.80;;
13816;SDS011;6979;52.116;5.286;2023-03-26T12:45:47;7.23;;;3.13;;
13816;SDS011;6979;52.116;5.286;2023-03-26T12:48:27;5.83;;;2.87;;
13816;SDS011;6979;52.116;5.286;2023-03-26T12:51:00;6.73;;;3.10;;
13816;SDS011;6979;52.116;5.286;2023-03-26T12:53:45;8.47;;;3.10;;
13816;SDS011;6979;52.116;5.286;2023-03-26T12:56:40;6.73;;;2.90;;
13816;SDS011;6979;52.116;5.286;2023-03-26T12:59:19;6.33;;;2.80;;
13816;SDS011;6979;52.116;5.286;2023-03-26T13:01:59;6.80;;;2.93;;
13816;SDS011;6979;52.116;5.286;2023-03-26T13:07:27;7.53;;;3.10;;
13816;SDS011;6979;52.116;5.286;2023-03-26T13:10:11;6.57;;;2.17;;
13816;SDS011;6979;52.116;5.286;2023-03-26T13:12:56;5.20;;;2.23;;
13816;SDS011;6979;52.116;5.286;2023-03-26T13:15:36;6.30;;;2.60;;
13816;SDS011;6979;52.116;5.286;2023-03-26T13:18:12;8.13;;;2.97;;
13816;SDS011;6979;52.116;5.286;2023-03-26T13:20:48;6.40;;;2.60;;
13816;SDS011;6979;52.116;5.286;2023-03-26T13:23:29;5.60;;;2.37;;
13816;SDS011;6979;52.116;5.286;2023-03-26T13:26:10;6.97;;;2.73;;
13816;SDS011;6979;52.116;5.286;2023-03-26T13:28:57;5.77;;;2.30;;
13816;SDS011;6979;52.116;5.286;2023-03-26T13:31:31;6.60;;;2.60;;
13816;SDS011;6979;52.116;5.286;2023-03-26T13:34:03;7.23;;;2.67;;
13816;SDS011;6979;52.116;5.286;2023-03-26T13:36:42;4.60;;;2.53;;
13816;SDS011;6979;52.116;5.286;2023-03-26T13:39:30;5.27;;;2.17;;
13816;SDS011;6979;52.116;5.286;2023-03-26T13:42:08;4.70;;;2.10;;
13816;SDS011;6979;52.116;5.286;2023-03-26T13:44:51;4.60;;;2.50;;
13816;SDS011;6979;52.116;5.286;2023-03-26T13:47:26;4.40;;;2.00;;
13816;SDS011;6979;52.116;5.286;2023-03-26T13:49:57;7.47;;;2.10;;
13816;SDS011;6979;52.116;5.286;2023-03-26T13:52:29;6.50;;;2.43;;
13816;SDS011;6979;52.116;5.286;2023-03-26T13:55:13;5.03;;;2.07;;
13816;SDS011;6979;52.116;5.286;2023-03-26T13:57:50;3.63;;;2.13;;
13816;SDS011;6979;52.116;5.286;2023-03-26T14:03:20;5.33;;;2.20;;
13816;SDS011;6979;52.116;5.286;2023-03-26T14:05:53;4.20;;;2.00;;
13816;SDS011;6979;52.116;5.286;2023-03-26T14:08:26;5.73;;;2.17;;
13816;SDS011;6979;52.116;5.286;2023-03-26T14:11:00;4.53;;;2.27;;
13816;SDS011;6979;52.116;5.286;2023-03-26T14:13:35;5.47;;;2.10;;
13816;SDS011;6979;52.116;5.286;2023-03-26T14:16:12;5.53;;;1.83;;
13816;SDS011;6979;52.116;5.286;2023-03-26T14:18:45;4.33;;;2.27;;
13816;SDS011;6979;52.116;5.286;2023-03-26T14:21:40;6.57;;;2.57;;
13816;SDS011;6979;52.116;5.286;2023-03-26T14:27:43;3.43;;;1.93;;
13816;SDS011;6979;52.116;5.286;2023-03-26T14:33:42;4.83;;;2.13;;
13816;SDS011;6979;52.116;5.286;2023-03-26T14:36:21;3.90;;;2.60;;
13816;SDS011;6979;52.116;5.286;2023-03-26T14:39:15;5.17;;;2.10;;
13816;SDS011;6979;52.116;5.286;2023-03-26T14:41:57;5.50;;;2.60;;
13816;SDS011;6979;52.116;5.286;2023-03-26T14:44:39;5.33;;;2.00;;
13816;SDS011;6979;52.116;5.286;2023-03-26T14:47:26;6.73;;;3.07;;
13816;SDS011;6979;52.116;5.286;2023-03-26T14:52:56;5.53;;;1.73;;
13816;SDS011;6979;52.116;5.286;2023-03-26T14:58:38;3.50;;;1.87;;
13816;SDS011;6979;52.116;5.286;2023-03-26T15:01:52;5.70;;;2.17;;
13816;SDS011;6979;52.116;5.286;2023-03-26T15:04:55;8.80;;;2.50;;
13816;SDS011;6979;52.116;5.286;2023-03-26T15:07:51;7.00;;;2.83;;
13816;SDS011;6979;52.116;5.286;2023-03-26T15:10:53;6.93;;;1.87;;
13816;SDS011;6979;52.116;5.286;2023-03-26T15:13:42;6.67;;;2.13;;
13816;SDS011;6979;52.116;5.286;2023-03-26T15:16:32;3.00;;;1.87;;
13816;SDS011;6979;52.116;5.286;2023-03-26T15:19:24;9.57;;;2.40;;
13816;SDS011;6979;52.116;5.286;2023-03-26T15:22:24;6.73;;;2.07;;
13816;SDS011;6979;52.116;5.286;2023-03-26T15:25:26;4.07;;;1.73;;
13816;SDS011;6979;52.116;5.286;2023-03-26T15:35:02;4.63;;;1.93;;
13816;SDS011;6979;52.116;5.286;2023-03-26T15:38:10;4.73;;;1.83;;
13816;SDS011;6979;52.116;5.286;2023-03-26T15:41:19;4.17;;;1.73;;
13816;SDS011;6979;52.116;5.286;2023-03-26T15:44:09;3.40;;;2.23;;
13816;SDS011;6979;52.116;5.286;2023-03-26T15:47:24;5.73;;;2.20;;
13816;SDS011;6979;52.116;5.286;2023-03-26T15:50:10;6.90;;;2.27;;
13816;SDS011;6979;52.116;5.286;2023-03-26T15:52:56;10.83;;;3.10;;
13816;SDS011;6979;52.116;5.286;2023-03-26T15:55:31;3.73;;;2.10;;
13816;SDS011;6979;52.116;5.286;2023-03-26T15:58:08;3.43;;;1.83;;
13816;SDS011;6979;52.116;5.286;2023-03-26T16:00:46;5.23;;;1.97;;
13816;SDS011;6979;52.116;5.286;2023-03-26T16:03:23;3.30;;;2.07;;
13816;SDS011;6979;52.116;5.286;2023-03-26T16:06:10;6.73;;;2.00;;
13816;SDS011;6979;52.116;5.286;2023-03-26T16:08:55;4.23;;;2.30;;
13816;SDS011;6979;52.116;5.286;2023-03-26T16:11:47;7.63;;;2.63;;
13816;SDS011;6979;52.116;5.286;2023-03-26T16:14:19;3.83;;;1.77;;
13816;SDS011;6979;52.116;5.286;2023-03-26T16:16:51;6.63;;;2.10;;
13816;SDS011;6979;52.116;5.286;2023-03-26T16:22:15;3.93;;;1.67;;
13816;SDS011;6979;52.116;5.286;2023-03-26T16:25:16;6.40;;;2.03;;
13816;SDS011;6979;52.116;5.286;2023-03-26T16:30:59;3.90;;;1.80;;
13816;SDS011;6979;52.116;5.286;2023-03-26T16:33:46;6.43;;;2.27;;
13816;SDS011;6979;52.116;5.286;2023-03-26T16:36:22;5.77;;;2.13;;
13816;SDS011;6979;52.116;5.286;2023-03-26T16:39:11;4.60;;;2.07;;
13816;SDS011;6979;52.116;5.286;2023-03-26T16:44:48;7.33;;;1.90;;
13816;SDS011;6979;52.116;5.286;2023-03-26T16:47:26;5.77;;;2.80;;
13816;SDS011;6979;52.116;5.286;2023-03-26T16:50:04;3.03;;;1.63;;
13816;SDS011;6979;52.116;5.286;2023-03-26T16:52:42;5.63;;;2.03;;
13816;SDS011;6979;52.116;5.286;2023-03-26T16:55:20;5.33;;;1.27;;
13816;SDS011;6979;52.116;5.286;2023-03-26T16:57:55;5.63;;;1.80;;
13816;SDS011;6979;52.116;5.286;2023-03-26T17:00:33;2.40;;;1.40;;
13816;SDS011;6979;52.116;5.286;2023-03-26T17:03:23;2.37;;;1.23;;
13816;SDS011;6979;52.116;5.286;2023-03-26T17:06:03;4.40;;;1.73;;
13816;SDS011;6979;52.116;5.286;2023-03-26T17:08:50;6.17;;;2.20;;
13816;SDS011;6979;52.116;5.286;2023-03-26T17:11:26;5.50;;;1.87;;
13816;SDS011;6979;52.116;5.286;2023-03-26T17:14:04;4.73;;;2.00;;
13816;SDS011;6979;52.116;5.286;2023-03-26T17:16:37;3.67;;;1.80;;